• Join FlightAware (Why Join?)
  • Login
  • US Flag 
10:42PM EDT


 

Airport Tracker/Info


-or-


 

Live Flight TrackerFlight Track Log ✈ MTN8324 ✈ 26-Apr-2013 ✈ KEWR - KBUF

Flight Track Log - Related Links

Times and Time Zones

All times are in EDT time to prevent confusion due to time zone crossing. See the MTN8324 flight status page for this flight to view local times or setup timezone preferences in your user account.

Time Position Orientation Groundspeed Altitude Reporting Facility
EDT Latitude Longitude Course Direction KTS MPH feet Rate Location/Type
04:31AM 40.6500 -74.1833 311° West 154 177 1,800  Level New York TRACON
04:32AM 40.6833 -74.2333 311° West 161 185 3,100 1,440 Climbing New York TRACON
04:33AM 40.7167 -74.2500 339° North 168 193 4,700 1,560 Climbing New York TRACON
04:34AM 40.7667 -74.2667 346° North 179 206 6,300 1,620 Climbing New York TRACON
04:35AM 40.8167 -74.3000 333° Northwest 184 212 8,000 1,680 Climbing New York TRACON
04:36AM 40.8667 -74.3167 346° North 182 209 9,700 1,680 Climbing New York TRACON
04:37AM 40.9167 -74.3333 346° North 179 206 11,400 1,140 Climbing New York TRACON
04:38AM 40.9500 -74.3667 323° Northwest 193 222 12,100 300 Climbing New York TRACON
04:39AM 41.0167 -74.4000 339° North 238 274 12,100 -120 Level New York TRACON
04:39AM 41.0286 -74.4044 344° North 247 284 12,000 -120 Descending New York Center
04:40AM 41.1047 -74.4361 343° North 270 311 12,000  Level New York Center
04:41AM 41.1764 -74.4758 337° Northwest 290 334 12,000  Level New York Center
04:42AM 41.2358 -74.5067 339° North 279 321 12,000  Level New York Center
04:43AM 41.3117 -74.5442 340° North 268 308 12,000  Level New York Center
04:44AM 41.3753 -74.5725 342° North 263 303 12,000 240 Level New York Center
04:45AM 41.4358 -74.6314 324° Northwest 252 290 12,500 1,080 Climbing New York Center
04:46AM 41.4589 -74.6881 299° West 213 245 14,200 1,380 Climbing New York Center
04:47AM 41.4903 -74.7508 304° West 185 213 15,400 900 Climbing New York Center
04:48AM 41.5136 -74.7992 303° West 185 213 16,000 300 Climbing New York Center
04:49AM 41.5506 -74.8733 304° West 203 234 16,000  Level New York Center
04:50AM 41.5872 -74.9533 302° West 230 265 16,100  Climbing New York Center
04:51AM 41.6203 -75.0219 303° West 248 285 16,100  Level New York Center
04:52AM 41.6631 -75.1053 305° West 253 291 16,100  Level New York Center
04:53AM 41.6997 -75.1856 301° West 253 291 16,100  Level New York Center
04:54AM 41.7386 -75.2603 305° West 253 291 16,100  Level New York Center
04:55AM 41.7711 -75.3319 301° West 253 291 16,100  Level New York Center
04:56AM 41.8097 -75.4125 303° West 253 291 16,100  Level New York Center
04:57AM 41.8503 -75.4961 303° West 253 291 16,100  Level New York Center
04:58AM 41.8886 -75.5742 303° West 253 291 16,100  Level New York Center
04:59AM 41.9250 -75.6519 302° West 253 291 16,100  Level New York Center
05:00AM 41.9633 -75.7300 303° West 253 291 16,100  Level New York Center
05:01AM 41.9997 -75.8081 302° West 258 297 16,100  Level New York Center
05:02AM 42.0342 -75.8806 303° West 258 297 16,100  Level New York Center
05:03AM 42.0742 -75.9647 303° West 258 297 16,100  Level New York Center
05:04AM 42.1103 -76.0431 302° West 252 290 16,100  Level New York Center
05:05AM 42.1483 -76.1217 303° West 252 290 16,100  Level New York Center
05:06AM 42.1822 -76.2000 300° West 252 290 16,100  Level New York Center
05:07AM 42.2203 -76.2814 302° West 252 290 16,100  Level New York Center
05:08AM 42.2539 -76.3628 299° West 257 296 16,100  Level New York Center
05:09AM 42.2875 -76.4439 299° West 257 296 16,100  Level New York Center
05:10AM 42.3217 -76.5142 303° West 257 296 16,100  Level New York Center
05:11AM 42.3492 -76.5819 299° West 256 295 16,100 -60 Level Cleveland Center
05:12AM 42.3831 -76.6614 300° West 256 295 16,000 -60 Descending Cleveland Center
05:13AM 42.4169 -76.7408 300° West 256 295 16,000  Level Cleveland Center
05:14AM 42.4531 -76.8231 301° West 256 295 16,000  Level Cleveland Center
05:15AM 42.4869 -76.9028 300° West 251 289 16,000  Level Cleveland Center
05:16AM 42.5208 -76.9825 300° West 251 289 16,000  Level Cleveland Center
05:17AM 42.5544 -77.0625 300° West 246 283 16,000  Level Cleveland Center
05:18AM 42.5861 -77.1397 299° West 246 283 16,000  Level Cleveland Center
05:19AM 42.6197 -77.2197 300° West 246 283 16,000  Level Cleveland Center
05:20AM 42.6533 -77.2997 300° West 246 283 16,000  Level Cleveland Center
05:21AM 42.6867 -77.3800 299° West 241 277 16,000  Level Cleveland Center
05:22AM 42.7203 -77.4603 300° West 241 277 16,000  Level Cleveland Center
05:23AM 42.7514 -77.5378 299° West 241 277 16,000  Level Cleveland Center
05:24AM 42.7825 -77.6069 302° West 241 277 16,000 -360 Level Cleveland Center
05:25AM 42.8158 -77.6906 299° West 241 277 15,300 -900 Descending Cleveland Center
05:26AM 42.8408 -77.7769 292° West 241 277 14,200 -1,200 Descending Cleveland Center
05:27AM 42.8494 -77.8731 277° West 246 283 13,000 -1,380 Descending Cleveland Center
05:28AM 42.8597 -77.9575 279° West 246 283 11,500 -1,020 Descending Cleveland Center
05:29AM 42.8658 -78.0367 276° West 228 262 11,000 -300 Descending Cleveland Center
05:30AM 42.8444 -78.1139 249° West 214 246 11,000 -120 Level Cleveland Center
05:31AM 42.8317 -78.1994 259° West 225 259 10,800 -960 Descending Cleveland Center
05:32AM 42.8147 -78.2878 255° West 239 275 9,100 -1,860 Descending Cleveland Center
05:33AM 42.8097 -78.3586 265° West 217 250 7,100 -2,100 Descending Cleveland Center
05:34AM 42.8175 -78.4319 278° West 181 208 4,900 -1,800 Descending Cleveland Center
05:35AM 42.8250 -78.5025 278° West 181 208 3,600 -720 Descending Cleveland Center
05:37AM 42.8833 -78.6167 305° West 148 170 2,600 -540 Descending Buffalo TRACON
05:38AM 42.9000 -78.6667 294° West 139 160 1,800 -720 Descending Buffalo TRACON
05:39AM 42.9167 -78.7000 304° West 102 117 1,200 -600 Descending Buffalo TRACON